createdAt,value
2018-11-23T00:01:29.677Z,32.08
2018-11-23T00:03:57.202Z,30.88
2018-11-23T00:06:24.651Z,30.27
2018-11-23T00:08:52.064Z,29.50
2018-11-23T00:11:19.491Z,36.47
2018-11-23T00:13:47.020Z,33.88
2018-11-23T00:16:14.439Z,41.42
2018-11-23T00:18:41.873Z,34.35
2018-11-23T00:21:09.457Z,32.55
2018-11-23T00:23:36.901Z,38.97
2018-11-23T00:26:04.312Z,45.60
2018-11-23T00:28:31.736Z,29.92
2018-11-23T00:30:59.389Z,39.75
2018-11-23T00:33:26.828Z,35.08
2018-11-23T00:35:54.244Z,30.95
2018-11-23T00:38:21.696Z,39.88
2018-11-23T00:40:49.247Z,30.10
2018-11-23T00:43:16.781Z,32.95
2018-11-23T00:45:44.197Z,35.33
2018-11-23T00:48:11.704Z,38.03
2018-11-23T00:50:39.103Z,38.42
2018-11-23T00:53:06.534Z,24.40
2018-11-23T00:55:33.950Z,33.97
2018-11-23T00:58:01.413Z,28.02
2018-11-23T01:00:28.898Z,31.62
2018-11-23T01:02:56.357Z,22.80
2018-11-23T01:05:24.296Z,29.37
2018-11-23T01:07:51.758Z,35.72
2018-11-23T01:10:19.193Z,35.55
2018-11-23T01:12:46.898Z,31.17
2018-11-23T01:15:14.290Z,31.67
2018-11-23T01:17:41.695Z,34.45
2018-11-23T01:20:09.129Z,29.80
2018-11-23T01:22:36.544Z,41.65
2018-11-23T01:25:03.953Z,40.08
2018-11-23T01:27:31.451Z,33.13
2018-11-23T01:29:58.912Z,30.35
2018-11-23T01:32:26.334Z,42.62
2018-11-23T01:34:53.770Z,29.95
2018-11-23T01:37:21.230Z,33.33
2018-11-23T01:39:48.674Z,35.65
2018-11-23T01:42:16.076Z,30.90
2018-11-23T01:44:43.483Z,36.25
2018-11-23T01:47:10.904Z,44.97
2018-11-23T01:49:38.324Z,50.63
2018-11-23T01:52:05.738Z,39.60
2018-11-23T01:54:33.211Z,31.77
2018-11-23T01:57:01.331Z,38.10
2018-11-23T01:59:28.738Z,37.72
2018-11-23T02:01:56.169Z,44.80
2018-11-23T02:04:23.580Z,40.38
2018-11-23T02:06:50.994Z,37.00
2018-11-23T02:09:18.420Z,35.50
2018-11-23T02:11:45.820Z,39.40
2018-11-23T02:14:13.237Z,35.17
2018-11-23T02:16:40.880Z,41.70
2018-11-23T02:19:08.310Z,37.50
2018-11-23T02:21:35.731Z,37.28
2018-11-23T02:24:03.150Z,47.20
2018-11-23T02:26:30.594Z,47.72
2018-11-23T02:28:58.002Z,40.55
2018-11-23T02:31:25.433Z,26.23
2018-11-23T02:33:52.895Z,36.67
2018-11-23T02:36:20.490Z,39.08
2018-11-23T02:38:47.898Z,46.13
2018-11-23T02:41:15.879Z,49.50
2018-11-23T02:43:43.276Z,47.22
2018-11-23T02:46:10.705Z,49.83
2018-11-23T02:48:38.162Z,34.95
2018-11-23T02:51:05.864Z,37.58
2018-11-23T02:53:33.291Z,34.63
2018-11-23T02:56:00.760Z,40.47
2018-11-23T02:58:28.182Z,36.10
2018-11-23T03:00:55.575Z,40.70
2018-11-23T03:03:23.140Z,42.92
2018-11-23T03:05:50.573Z,48.13
2018-11-23T03:08:18.460Z,39.28
2018-11-23T03:10:45.876Z,45.08
2018-11-23T03:13:13.286Z,35.72
2018-11-23T03:15:40.799Z,49.10
2018-11-23T03:18:08.215Z,41.42
2018-11-23T03:20:35.640Z,35.60
2018-11-23T03:23:03.607Z,38.70
2018-11-23T03:25:31.030Z,40.00
2018-11-23T03:27:58.435Z,41.63
2018-11-23T03:30:25.901Z,35.03
2018-11-23T03:32:53.309Z,40.53
2018-11-23T03:35:20.703Z,47.97
2018-11-23T03:37:48.135Z,41.03
2018-11-23T03:40:15.555Z,45.03
2018-11-23T03:42:42.967Z,38.10
2018-11-23T03:45:10.493Z,51.58
2018-11-23T03:47:37.920Z,31.50
2018-11-23T03:50:05.342Z,32.78
2018-11-23T03:52:32.761Z,34.25
2018-11-23T03:55:00.194Z,36.75
2018-11-23T03:57:27.740Z,30.65
2018-11-23T03:59:55.155Z,32.85
2018-11-23T04:02:22.568Z,31.27
2018-11-23T04:04:50.072Z,36.88
2018-11-23T04:07:17.558Z,32.80
2018-11-23T04:09:44.964Z,40.83
2018-11-23T04:12:12.360Z,34.05
2018-11-23T04:14:39.766Z,38.05
2018-11-23T04:17:07.196Z,48.33
2018-11-23T04:19:34.608Z,46.60
2018-11-23T04:22:02.021Z,63.67
2018-11-23T04:24:29.423Z,41.03
2018-11-23T04:26:56.827Z,31.00
2018-11-23T04:29:24.256Z,39.80
2018-11-23T04:31:51.635Z,36.97
2018-11-23T04:34:19.227Z,33.25
2018-11-23T04:36:46.628Z,28.65
2018-11-23T04:39:14.967Z,31.17
2018-11-23T04:41:46.424Z,28.58
2018-11-23T04:44:09.815Z,31.10
2018-11-23T04:46:37.315Z,42.78
2018-11-23T04:49:04.894Z,27.67
2018-11-23T04:51:32.927Z,28.77
2018-11-23T04:54:00.519Z,34.50
2018-11-23T04:56:27.977Z,33.08
2018-11-23T04:58:55.387Z,37.67
2018-11-23T05:01:22.805Z,30.83
2018-11-23T05:03:50.228Z,29.02
2018-11-23T05:06:17.659Z,38.88
2018-11-23T05:08:45.068Z,37.58
2018-11-23T05:11:12.473Z,27.23
2018-11-23T05:13:39.878Z,36.03
2018-11-23T05:16:07.286Z,32.80
2018-11-23T05:18:34.711Z,26.08
2018-11-23T05:21:02.111Z,24.87
2018-11-23T05:23:29.617Z,29.42
2018-11-23T05:25:57.230Z,32.88
2018-11-23T05:28:24.847Z,28.83
2018-11-23T05:30:52.320Z,23.98
2018-11-23T05:33:19.732Z,31.58
2018-11-23T05:35:48.151Z,34.40
2018-11-23T05:38:15.596Z,30.75
2018-11-23T05:40:43.022Z,34.17
2018-11-23T05:43:10.449Z,31.15
2018-11-23T05:45:37.854Z,28.20
2018-11-23T05:48:05.273Z,36.47
2018-11-23T05:50:32.733Z,29.65
2018-11-23T05:53:00.143Z,25.17
2018-11-23T05:55:27.541Z,40.00
2018-11-23T05:57:54.955Z,30.25
2018-11-23T06:00:22.374Z,33.00
2018-11-23T06:02:49.889Z,31.30
2018-11-23T06:05:17.735Z,33.83
2018-11-23T06:07:45.287Z,30.10
2018-11-23T06:10:12.713Z,24.15
2018-11-23T06:12:40.119Z,31.37
2018-11-23T06:15:07.578Z,33.08
2018-11-23T06:17:35.004Z,32.50
2018-11-23T06:20:02.424Z,28.50
2018-11-23T06:22:30.063Z,31.37
2018-11-23T06:24:57.483Z,32.58
2018-11-23T06:27:24.878Z,26.17
2018-11-23T06:29:52.900Z,31.60
2018-11-23T06:32:20.350Z,34.25
2018-11-23T06:34:47.809Z,26.75
2018-11-23T06:37:15.270Z,33.03
2018-11-23T06:39:42.685Z,47.53
2018-11-23T06:42:10.103Z,28.08
2018-11-23T06:44:37.531Z,39.50
2018-11-23T06:47:04.938Z,31.42
2018-11-23T06:49:32.372Z,33.28
2018-11-23T06:51:59.770Z,39.97
2018-11-23T06:54:27.202Z,30.67
2018-11-23T06:56:55.733Z,33.58
2018-11-23T06:59:23.200Z,32.60
2018-11-23T07:01:50.620Z,28.52
2018-11-23T07:04:18.052Z,29.00
2018-11-23T07:06:45.484Z,32.63
2018-11-23T07:09:13.763Z,38.28
2018-11-23T07:11:41.221Z,37.28
2018-11-23T07:14:08.670Z,24.20
2018-11-23T07:16:36.164Z,32.35
2018-11-23T07:19:03.587Z,43.20
2018-11-23T07:21:31.039Z,36.58
2018-11-23T07:23:58.472Z,37.80
2018-11-23T07:26:26.480Z,34.60
2018-11-23T07:28:53.922Z,42.70
2018-11-23T07:31:21.402Z,29.65
2018-11-23T07:33:48.818Z,31.35
2018-11-23T07:36:16.270Z,27.13
2018-11-23T07:38:43.785Z,29.52
2018-11-23T07:41:22.976Z,32.20
2018-11-23T07:43:50.535Z,30.83
2018-11-23T07:46:18.084Z,35.30
2018-11-23T07:48:45.548Z,38.33
2018-11-23T07:51:13.019Z,29.15
2018-11-23T07:53:40.436Z,41.40
2018-11-23T07:56:07.822Z,31.95
2018-11-23T07:58:35.580Z,28.52
2018-11-23T08:01:04.584Z,49.25
2018-11-23T08:03:32.731Z,30.55
2018-11-23T08:06:01.089Z,30.52
2018-11-23T08:08:28.486Z,38.83
2018-11-23T08:10:55.346Z,34.45
2018-11-23T08:13:23.612Z,35.60
2018-11-23T08:15:51.023Z,32.90
2018-11-23T08:18:18.468Z,31.10
2018-11-23T08:20:45.858Z,31.77
2018-11-23T08:23:13.246Z,39.05
2018-11-23T08:25:40.670Z,31.90
2018-11-23T08:28:08.098Z,30.95
2018-11-23T08:30:35.527Z,27.55
2018-11-23T08:33:02.936Z,32.58
2018-11-23T08:35:30.400Z,33.97
2018-11-23T08:37:57.927Z,34.00
2018-11-23T08:40:25.463Z,21.17
2018-11-23T08:42:52.849Z,33.97
2018-11-23T08:45:20.271Z,28.33
2018-11-23T08:47:47.755Z,23.30
2018-11-23T08:50:15.207Z,29.40
2018-11-23T08:52:42.626Z,39.92
2018-11-23T08:55:10.110Z,28.45
2018-11-23T08:57:37.550Z,24.63
2018-11-23T09:00:04.963Z,38.65
2018-11-23T09:02:32.390Z,35.70
2018-11-23T09:04:59.774Z,36.22
2018-11-23T09:07:27.199Z,43.80
2018-11-23T09:09:54.622Z,37.35
2018-11-23T09:12:22.165Z,27.27
2018-11-23T09:14:49.776Z,23.08
2018-11-23T09:17:17.262Z,37.90
2018-11-23T09:19:44.701Z,31.12
2018-11-23T09:22:12.121Z,32.58
2018-11-23T09:24:39.525Z,28.45
2018-11-23T09:27:07.063Z,32.88
2018-11-23T09:29:35.153Z,30.00
2018-11-23T09:32:02.549Z,30.30
2018-11-23T09:34:29.966Z,34.88
2018-11-23T09:36:57.386Z,26.12
2018-11-23T09:39:24.818Z,31.92
2018-11-23T09:41:52.223Z,31.08
2018-11-23T09:44:19.634Z,33.00
2018-11-23T09:46:47.047Z,31.37
2018-11-23T09:49:14.600Z,36.42
2018-11-23T09:51:42.148Z,32.95
2018-11-23T09:54:09.542Z,33.95
2018-11-23T09:56:37.170Z,23.55
2018-11-23T09:59:04.689Z,36.00
2018-11-23T10:01:32.130Z,31.48
2018-11-23T10:03:59.605Z,33.10
2018-11-23T10:06:27.145Z,33.58
2018-11-23T10:08:54.449Z,30.33
2018-11-23T10:11:21.857Z,34.72
2018-11-23T10:13:49.271Z,37.83
2018-11-23T10:16:16.735Z,36.40
2018-11-23T10:18:44.350Z,29.75
2018-11-23T10:21:11.759Z,33.85
2018-11-23T10:23:39.166Z,27.95
2018-11-23T10:26:06.799Z,30.40
2018-11-23T10:28:34.284Z,24.55
2018-11-23T10:31:01.682Z,26.83
2018-11-23T10:33:29.427Z,27.02
2018-11-23T10:35:56.857Z,24.05
2018-11-23T10:38:25.041Z,29.23
2018-11-23T10:40:52.430Z,27.70
2018-11-23T10:43:19.843Z,31.85
2018-11-23T10:45:48.146Z,26.45
2018-11-23T10:48:15.632Z,21.23
2018-11-23T10:50:43.235Z,25.45
2018-11-23T10:53:10.631Z,35.15
2018-11-23T10:55:38.229Z,24.42
2018-11-23T10:58:06.424Z,28.33
2018-11-23T11:00:33.850Z,22.35
2018-11-23T11:03:01.274Z,28.02
2018-11-23T11:05:28.829Z,31.15
2018-11-23T11:07:56.291Z,31.17
2018-11-23T11:10:23.905Z,25.50
2018-11-23T11:12:51.542Z,30.33
2018-11-23T11:15:18.986Z,20.23
2018-11-23T11:17:46.764Z,25.05
2018-11-23T11:20:14.230Z,28.10
2018-11-23T11:22:41.633Z,28.83
2018-11-23T11:25:09.190Z,24.85
2018-11-23T11:27:36.631Z,23.00
2018-11-23T11:30:04.090Z,23.20
2018-11-23T11:32:31.511Z,25.67
2018-11-23T11:34:58.919Z,27.55
2018-11-23T11:37:26.393Z,21.17
2018-11-23T11:39:53.846Z,23.77
2018-11-23T11:42:21.283Z,30.23
2018-11-23T11:44:49.303Z,23.45
2018-11-23T11:47:16.752Z,27.67
2018-11-23T11:49:44.224Z,21.37
2018-11-23T11:52:11.646Z,24.10
2018-11-23T11:54:39.070Z,30.85
2018-11-23T11:57:06.513Z,24.80
2018-11-23T11:59:33.926Z,29.20
2018-11-23T12:02:01.453Z,34.90
2018-11-23T12:04:28.855Z,24.25
2018-11-23T12:06:56.270Z,23.17
2018-11-23T12:09:23.728Z,23.17
2018-11-23T12:11:51.146Z,25.05
2018-11-23T12:14:19.030Z,19.55
2018-11-23T12:16:46.485Z,23.67
2018-11-23T12:19:14.646Z,33.38
2018-11-23T12:21:42.220Z,29.70
2018-11-23T12:24:09.738Z,26.85
2018-11-23T12:26:37.252Z,26.30
2018-11-23T12:29:04.756Z,29.15
2018-11-23T12:31:32.141Z,26.20
2018-11-23T12:33:59.623Z,25.83
2018-11-23T12:36:27.130Z,24.00
2018-11-23T12:38:54.667Z,24.48
2018-11-23T12:41:22.082Z,29.83
2018-11-23T12:43:49.533Z,26.90
2018-11-23T12:46:16.971Z,20.30
2018-11-23T12:48:44.442Z,26.77
2018-11-23T12:51:11.870Z,25.42
2018-11-23T12:53:39.348Z,29.00
2018-11-23T12:56:07.011Z,26.58
2018-11-23T12:58:36.043Z,19.70
2018-11-23T13:01:03.496Z,29.33
2018-11-23T13:03:31.056Z,23.95
2018-11-23T13:05:58.477Z,24.55
2018-11-23T13:08:25.922Z,24.98
2018-11-23T13:10:53.423Z,23.95
2018-11-23T13:13:20.881Z,24.98
2018-11-23T13:15:48.275Z,20.90
2018-11-23T13:18:15.749Z,28.65
2018-11-23T13:20:43.182Z,22.62
2018-11-23T13:23:10.860Z,26.00
2018-11-23T13:25:38.275Z,27.98
2018-11-23T13:28:06.617Z,21.60
2018-11-23T13:30:34.061Z,24.95
2018-11-23T13:33:01.498Z,27.87
2018-11-23T13:35:28.914Z,21.70
2018-11-23T13:37:56.324Z,26.83
2018-11-23T13:40:23.817Z,27.40
2018-11-23T13:42:52.148Z,22.98
2018-11-23T13:45:19.706Z,31.27
2018-11-23T13:47:47.162Z,26.08
2018-11-23T13:50:14.591Z,28.50
2018-11-23T13:52:42.003Z,32.40
2018-11-23T13:55:10.451Z,31.05
2018-11-23T13:57:37.884Z,20.55
2018-11-23T14:00:05.395Z,29.92
2018-11-23T14:02:32.918Z,27.35
2018-11-23T14:05:00.325Z,25.48
2018-11-23T14:07:27.731Z,27.70
2018-11-23T14:09:55.212Z,27.92
2018-11-23T14:12:22.638Z,23.60
2018-11-23T14:14:50.040Z,23.42
2018-11-23T14:17:17.491Z,34.13
2018-11-23T14:19:45.115Z,22.33
2018-11-23T14:22:12.506Z,24.35
2018-11-23T14:24:39.931Z,22.52
2018-11-23T14:27:07.375Z,24.73
2018-11-23T14:29:34.919Z,28.35
2018-11-23T14:32:02.348Z,27.55
2018-11-23T14:34:29.739Z,35.60
2018-11-23T14:36:58.155Z,38.70
2018-11-23T14:39:25.578Z,32.20
2018-11-23T14:41:53.693Z,35.30
2018-11-23T14:44:21.157Z,30.88
2018-11-23T14:46:48.668Z,29.95
2018-11-23T14:49:16.077Z,23.08
2018-11-23T14:51:43.480Z,22.45
2018-11-23T14:54:10.929Z,28.90
2018-11-23T14:56:38.697Z,32.35
2018-11-23T14:59:06.109Z,29.80
2018-11-23T15:01:33.566Z,28.08
2018-11-23T15:04:00.959Z,23.60
2018-11-23T15:06:28.451Z,41.20
2018-11-23T15:08:55.892Z,34.58
2018-11-23T15:11:23.301Z,39.80
2018-11-23T15:13:50.802Z,26.40
2018-11-23T15:16:18.244Z,23.27
2018-11-23T15:18:45.943Z,25.70
2018-11-23T15:21:13.330Z,30.33
2018-11-23T15:23:41.488Z,23.73
2018-11-23T15:26:08.965Z,29.30
2018-11-23T15:28:36.412Z,30.23
2018-11-23T15:31:03.821Z,27.13
2018-11-23T15:33:31.241Z,30.20
2018-11-23T15:35:58.631Z,29.77
2018-11-23T15:38:26.094Z,27.58
2018-11-23T15:40:53.530Z,29.12
2018-11-23T15:43:20.997Z,32.38
2018-11-23T15:45:48.526Z,27.10
2018-11-23T15:48:15.960Z,31.67
2018-11-23T15:50:43.386Z,30.50
2018-11-23T15:53:10.791Z,24.87
2018-11-23T15:55:38.564Z,22.13
2018-11-23T15:58:05.672Z,39.72
2018-11-23T16:00:34.591Z,23.70
2018-11-23T16:03:02.043Z,23.10
2018-11-23T16:05:29.597Z,28.48
2018-11-23T16:07:57.066Z,33.13
2018-11-23T16:10:24.488Z,26.90
2018-11-23T16:12:51.919Z,27.83
2018-11-23T16:15:20.556Z,23.38
2018-11-23T16:17:48.036Z,29.98
2018-11-23T16:20:15.562Z,25.70
2018-11-23T16:22:43.015Z,23.50
2018-11-23T16:25:10.404Z,21.00
2018-11-23T16:27:37.859Z,24.80
2018-11-23T16:30:05.281Z,27.27
2018-11-23T16:32:32.672Z,26.30
2018-11-23T16:35:00.182Z,22.85
2018-11-23T16:37:27.706Z,26.10
2018-11-23T16:39:56.058Z,22.83
2018-11-23T16:42:23.486Z,24.33
2018-11-23T16:44:50.881Z,20.77
2018-11-23T16:47:18.332Z,26.52
2018-11-23T16:49:45.763Z,19.48
2018-11-23T16:52:13.346Z,26.40
2018-11-23T16:54:40.762Z,18.37
2018-11-23T16:57:08.238Z,18.42
2018-11-23T16:59:35.715Z,22.67
2018-11-23T17:02:04.016Z,19.73
2018-11-23T17:04:31.446Z,21.73
2018-11-23T17:06:59.509Z,21.17
2018-11-23T17:09:26.918Z,16.83
2018-11-23T17:11:54.332Z,19.65
2018-11-23T17:14:21.855Z,20.12
2018-11-23T17:16:49.319Z,26.90
2018-11-23T17:19:16.758Z,19.40
2018-11-23T17:21:44.180Z,13.85
2018-11-23T17:24:12.546Z,17.30
2018-11-23T17:26:40.000Z,19.90
2018-11-23T17:29:07.538Z,22.05
2018-11-23T17:31:34.940Z,16.35
2018-11-23T17:34:02.442Z,28.05
2018-11-23T17:36:29.841Z,16.25
2018-11-23T17:38:57.328Z,16.42
2018-11-23T17:41:24.859Z,21.02
2018-11-23T17:43:52.291Z,19.98
2018-11-23T17:46:19.760Z,18.05
2018-11-23T17:48:47.171Z,14.60
2018-11-23T17:51:14.640Z,16.80
2018-11-23T17:53:42.350Z,16.75
2018-11-23T17:56:10.432Z,16.98
2018-11-23T17:58:38.461Z,17.85
2018-11-23T18:01:05.875Z,17.52
2018-11-23T18:03:33.364Z,18.30
2018-11-23T18:06:00.800Z,18.52
2018-11-23T18:08:28.212Z,20.60
2018-11-23T18:10:55.614Z,14.98
2018-11-23T18:13:23.048Z,18.80
2018-11-23T18:15:50.459Z,15.68
2018-11-23T18:18:17.902Z,15.60
2018-11-23T18:20:45.473Z,15.27
2018-11-23T18:23:12.897Z,17.25
2018-11-23T18:25:40.315Z,19.62
2018-11-23T18:28:07.733Z,16.40
2018-11-23T18:30:35.181Z,16.75
2018-11-23T18:33:03.425Z,21.90
2018-11-23T18:35:30.918Z,17.87
2018-11-23T18:37:58.533Z,16.08
2018-11-23T18:40:25.960Z,15.75
2018-11-23T18:42:53.721Z,19.48
2018-11-23T18:45:21.151Z,18.35
2018-11-23T18:47:48.662Z,15.50
2018-11-23T18:50:16.915Z,18.50
2018-11-23T18:52:44.344Z,23.80
2018-11-23T18:55:17.919Z,24.52
2018-11-23T18:57:40.263Z,22.42
2018-11-23T19:00:07.720Z,25.62
2018-11-23T19:02:35.784Z,17.92
2018-11-23T19:05:03.559Z,26.42
2018-11-23T19:07:30.976Z,16.73
2018-11-23T19:09:58.433Z,16.92
2018-11-23T19:12:25.874Z,17.08
2018-11-23T19:14:53.310Z,18.23
2018-11-23T19:17:21.005Z,21.85
2018-11-23T19:19:48.411Z,20.67
2018-11-23T19:22:15.917Z,20.67
2018-11-23T19:24:43.322Z,18.45
2018-11-23T19:27:11.323Z,21.77
2018-11-23T19:29:38.729Z,17.87
2018-11-23T19:32:06.157Z,18.05
2018-11-23T19:34:40.653Z,19.35
2018-11-23T19:37:08.050Z,18.48
2018-11-23T19:39:35.478Z,15.15
2018-11-23T19:42:02.932Z,17.95
2018-11-23T19:44:30.332Z,18.83
2018-11-23T19:46:57.774Z,16.25
2018-11-23T19:49:25.259Z,17.70
2018-11-23T19:51:52.719Z,13.80
2018-11-23T19:54:20.145Z,16.12
2018-11-23T19:56:47.610Z,13.93
2018-11-23T19:59:15.054Z,14.68
2018-11-23T20:01:42.541Z,15.48
2018-11-23T20:04:10.101Z,12.70
2018-11-23T20:06:42.734Z,11.77
2018-11-23T20:09:05.536Z,17.27
2018-11-23T20:11:32.965Z,13.98
2018-11-23T20:14:00.456Z,17.05
2018-11-23T20:16:27.870Z,16.42
2018-11-23T20:18:55.413Z,17.05
2018-11-23T20:21:23.828Z,19.02
2018-11-23T20:23:51.293Z,17.65
2018-11-23T20:26:18.898Z,18.02
2018-11-23T20:28:46.304Z,16.08
2018-11-23T20:31:13.834Z,13.90
2018-11-23T20:33:41.837Z,17.50
2018-11-23T20:36:09.298Z,16.62
2018-11-23T20:38:36.746Z,16.02
2018-11-23T20:41:05.041Z,18.67
2018-11-23T20:43:32.462Z,23.23
2018-11-23T20:46:00.786Z,19.60
2018-11-23T20:48:28.386Z,22.20
2018-11-23T20:50:55.814Z,16.05
2018-11-23T20:53:23.316Z,22.73
2018-11-23T20:55:50.746Z,22.10
2018-11-23T20:58:18.581Z,21.98
2018-11-23T21:00:45.987Z,21.20
2018-11-23T21:03:13.447Z,14.10
2018-11-23T21:05:40.876Z,19.65
2018-11-23T21:08:08.314Z,19.60
2018-11-23T21:10:35.709Z,21.65
2018-11-23T21:13:03.158Z,21.55
2018-11-23T21:15:30.562Z,24.98
2018-11-23T21:17:58.892Z,29.17
2018-11-23T21:20:28.213Z,28.08
2018-11-23T21:22:55.651Z,27.08
2018-11-23T21:25:23.134Z,24.42
2018-11-23T21:27:50.640Z,21.95
2018-11-23T21:30:18.150Z,31.60
2018-11-23T21:32:45.664Z,28.17
2018-11-23T21:35:13.119Z,23.65
2018-11-23T21:37:40.560Z,22.80
2018-11-23T21:40:07.993Z,20.05
2018-11-23T21:42:35.421Z,26.27
2018-11-23T21:45:03.045Z,27.02
2018-11-23T21:47:30.527Z,27.58
2018-11-23T21:49:58.032Z,22.40
2018-11-23T21:52:25.555Z,22.77
2018-11-23T21:54:53.064Z,22.20
2018-11-23T21:57:20.478Z,29.55
2018-11-23T21:59:47.898Z,27.67
2018-11-23T22:02:15.303Z,24.35
2018-11-23T22:04:42.718Z,25.35
2018-11-23T22:07:11.074Z,15.65
2018-11-23T22:09:38.515Z,20.98
2018-11-23T22:12:06.008Z,16.87
2018-11-23T22:14:33.416Z,12.93
2018-11-23T22:17:00.827Z,17.30
2018-11-23T22:19:28.433Z,14.43
2018-11-23T22:21:55.848Z,13.88
2018-11-23T22:24:23.285Z,14.82
2018-11-23T22:26:50.723Z,14.43
2018-11-23T22:29:18.117Z,13.02
2018-11-23T22:31:45.526Z,13.15
2018-11-23T22:34:12.998Z,15.85
2018-11-23T22:36:40.454Z,16.77
2018-11-23T22:39:08.008Z,12.88
2018-11-23T22:41:35.414Z,10.68
2018-11-23T22:44:02.841Z,11.43
2018-11-23T22:46:30.774Z,11.25
2018-11-23T22:48:58.175Z,11.15
2018-11-23T22:51:25.737Z,12.57
2018-11-23T22:53:53.337Z,12.52
2018-11-23T22:56:20.751Z,9.65
2018-11-23T22:58:51.474Z,9.65
2018-11-23T23:01:15.620Z,15.32
2018-11-23T23:03:43.078Z,12.88
2018-11-23T23:06:10.532Z,12.18
2018-11-23T23:08:38.398Z,9.73
2018-11-23T23:11:05.811Z,11.52
2018-11-23T23:13:33.246Z,12.25
2018-11-23T23:16:00.679Z,12.93
2018-11-23T23:18:28.106Z,10.52
2018-11-23T23:20:55.510Z,13.32
2018-11-23T23:23:23.267Z,9.75
2018-11-23T23:25:50.724Z,9.52
2018-11-23T23:28:19.194Z,8.38
2018-11-23T23:30:46.620Z,9.77
2018-11-23T23:33:14.036Z,10.68
2018-11-23T23:35:41.625Z,9.02
2018-11-23T23:38:09.221Z,12.48
2018-11-23T23:40:36.778Z,11.52
2018-11-23T23:43:04.262Z,10.00
2018-11-23T23:45:31.682Z,9.48
2018-11-23T23:47:59.066Z,9.00
2018-11-23T23:50:26.488Z,8.18
2018-11-23T23:52:53.878Z,8.65
2018-11-23T23:55:21.611Z,10.80
2018-11-23T23:57:49.051Z,8.93
